createdAt,value
2023-03-12T00:01:20.277Z,2.00
2023-03-12T00:03:49.078Z,2.20
2023-03-12T00:06:18.511Z,1.80
2023-03-12T00:08:47.383Z,1.80
2023-03-12T00:11:18.209Z,2.10
2023-03-12T00:13:50.215Z,1.90
2023-03-12T00:16:18.665Z,1.70
2023-03-12T00:18:49.078Z,1.90
2023-03-12T00:21:18.126Z,2.10
2023-03-12T00:23:48.233Z,1.80
2023-03-12T00:26:17.596Z,1.80
2023-03-12T00:28:47.180Z,1.90
2023-03-12T00:31:27.422Z,1.80
2023-03-12T00:33:56.694Z,2.00
2023-03-12T00:36:28.450Z,1.90
2023-03-12T00:38:57.912Z,1.90
2023-03-12T00:41:26.988Z,1.90
2023-03-12T00:43:55.074Z,2.00
2023-03-12T00:46:23.616Z,2.10
2023-03-12T00:48:52.011Z,1.90
2023-03-12T00:51:20.624Z,2.10
2023-03-12T00:53:48.825Z,2.30
2023-03-12T00:56:16.973Z,2.30
2023-03-12T00:58:45.326Z,2.20
2023-03-12T01:01:13.575Z,2.20
2023-03-12T01:03:41.874Z,2.20
2023-03-12T01:06:09.926Z,2.30
2023-03-12T01:08:38.785Z,2.40
2023-03-12T01:11:06.868Z,2.50
2023-03-12T01:13:34.970Z,2.40
2023-03-12T01:16:03.036Z,2.50
2023-03-12T01:18:31.225Z,2.20
2023-03-12T01:20:59.663Z,2.60
2023-03-12T01:23:28.421Z,2.40
2023-03-12T01:25:56.745Z,2.40
2023-03-12T01:28:25.714Z,2.60
2023-03-12T01:30:54.054Z,2.70
2023-03-12T01:33:23.135Z,2.40
2023-03-12T01:35:51.444Z,2.30
2023-03-12T01:38:21.024Z,2.60
2023-03-12T01:40:49.178Z,2.40
2023-03-12T01:43:36.898Z,2.60
2023-03-12T01:46:24.297Z,2.50
2023-03-12T01:49:01.395Z,2.70
2023-03-12T01:51:46.276Z,2.40
2023-03-12T01:54:25.263Z,2.70
2023-03-12T01:56:55.095Z,2.70
2023-03-12T01:59:29.250Z,2.70
2023-03-12T02:01:57.849Z,2.70
2023-03-12T02:04:27.467Z,2.70
2023-03-12T02:07:02.840Z,2.60
2023-03-12T02:09:36.658Z,2.10
2023-03-12T02:12:06.097Z,2.50
2023-03-12T02:14:35.009Z,2.40
2023-03-12T02:17:03.206Z,2.50
2023-03-12T02:19:34.200Z,2.40
2023-03-12T02:24:43.672Z,2.50
2023-03-12T02:27:12.352Z,2.70
2023-03-12T02:29:43.626Z,2.60
2023-03-12T02:32:20.164Z,2.40
2023-03-12T02:34:48.335Z,2.60
2023-03-12T02:37:17.099Z,2.40
2023-03-12T02:39:50.327Z,2.50
2023-03-12T02:42:18.449Z,2.50
2023-03-12T02:44:46.637Z,2.50
2023-03-12T02:47:14.749Z,2.40
2023-03-12T02:49:42.864Z,2.40
2023-03-12T02:52:11.204Z,2.40
2023-03-12T02:54:39.271Z,2.50
2023-03-12T02:57:07.338Z,2.70
2023-03-12T02:59:35.442Z,2.50
2023-03-12T03:02:04.581Z,2.70
2023-03-12T03:04:34.938Z,2.60
2023-03-12T03:07:03.124Z,1.70
2023-03-12T03:09:31.152Z,2.70
2023-03-12T03:11:59.246Z,2.50
2023-03-12T03:14:27.300Z,2.50
2023-03-12T03:16:55.511Z,2.60
2023-03-12T03:19:23.948Z,2.70
2023-03-12T03:21:52.133Z,2.70
2023-03-12T03:24:20.332Z,2.60
2023-03-12T03:26:48.698Z,2.50
2023-03-12T03:29:17.094Z,2.50
2023-03-12T03:31:45.171Z,2.40
2023-03-12T03:34:13.281Z,2.50
2023-03-12T03:36:41.378Z,2.40
2023-03-12T03:39:09.490Z,2.70
2023-03-12T03:41:37.594Z,2.70
2023-03-12T03:44:07.892Z,2.40
2023-03-12T03:46:36.129Z,2.40
2023-03-12T03:49:04.314Z,2.70
2023-03-12T03:51:32.997Z,2.50
2023-03-12T03:54:01.200Z,2.40
2023-03-12T03:56:29.370Z,2.70
2023-03-12T03:58:58.306Z,2.70
2023-03-12T04:01:26.406Z,2.60
2023-03-12T04:03:54.668Z,2.50
2023-03-12T04:06:22.807Z,2.60
2023-03-12T04:08:50.873Z,2.60
2023-03-12T04:11:21.401Z,2.80
2023-03-12T04:13:50.244Z,3.00
2023-03-12T04:16:18.771Z,2.80
2023-03-12T04:18:46.882Z,2.80
2023-03-12T04:21:15.325Z,2.80
2023-03-12T04:23:43.719Z,2.50
2023-03-12T04:26:11.956Z,2.60
2023-03-12T04:28:39.995Z,2.70
2023-03-12T04:31:08.658Z,2.50
2023-03-12T04:33:39.276Z,2.70
2023-03-12T04:36:08.084Z,2.60
2023-03-12T04:38:36.215Z,2.90
2023-03-12T04:41:11.078Z,2.80
2023-03-12T04:43:39.296Z,2.60
2023-03-12T04:46:07.823Z,2.60
2023-03-12T04:48:36.685Z,2.80
2023-03-12T04:51:05.632Z,2.50
2023-03-12T04:53:33.863Z,2.70
2023-03-12T04:56:02.084Z,1.30
2023-03-12T04:58:30.255Z,1.90
2023-03-12T05:00:58.321Z,2.70
2023-03-12T05:03:26.468Z,3.00
2023-03-12T05:05:54.649Z,2.70
2023-03-12T05:08:22.909Z,2.70
2023-03-12T05:10:51.113Z,3.00
2023-03-12T05:13:22.833Z,2.80
2023-03-12T05:15:52.071Z,1.40
2023-03-12T05:18:23.395Z,2.90
2023-03-12T05:21:01.792Z,2.60
2023-03-12T05:23:30.377Z,4.90
2023-03-12T05:25:58.602Z,1.60
2023-03-12T05:28:28.631Z,2.80
2023-03-12T05:30:58.474Z,1.40
2023-03-12T05:33:28.531Z,2.70
2023-03-12T05:35:56.702Z,1.30
2023-03-12T05:38:24.777Z,1.70
2023-03-12T05:40:55.179Z,2.70
2023-03-12T05:43:23.641Z,2.90
2023-03-12T05:45:52.565Z,2.80
2023-03-12T05:48:20.700Z,2.70
2023-03-12T05:50:48.777Z,3.00
2023-03-12T05:53:16.866Z,2.70
2023-03-12T05:55:44.993Z,3.00
2023-03-12T05:58:13.154Z,3.00
2023-03-12T06:00:42.013Z,2.60
2023-03-12T06:03:10.754Z,2.80
2023-03-12T06:05:38.940Z,2.60
2023-03-12T06:08:07.645Z,2.70
2023-03-12T06:10:38.232Z,2.00
2023-03-12T06:13:06.873Z,2.60
2023-03-12T06:15:34.968Z,2.50
2023-03-12T06:18:03.078Z,2.90
2023-03-12T06:20:31.157Z,1.70
2023-03-12T06:22:59.228Z,2.60
2023-03-12T06:25:27.375Z,2.60
2023-03-12T06:27:55.450Z,2.70
2023-03-12T06:30:23.617Z,2.40
2023-03-12T06:32:51.699Z,2.70
2023-03-12T06:35:20.245Z,2.60
2023-03-12T06:37:48.312Z,2.60
2023-03-12T06:40:16.523Z,2.50
2023-03-12T06:42:44.624Z,2.70
2023-03-12T06:45:12.663Z,2.50
2023-03-12T06:47:40.795Z,3.20
2023-03-12T06:50:09.594Z,3.10
2023-03-12T06:52:37.605Z,2.80
2023-03-12T06:55:06.261Z,2.70
2023-03-12T06:57:34.346Z,2.80
2023-03-12T07:00:02.965Z,2.60
2023-03-12T07:02:31.245Z,3.00
2023-03-12T07:04:59.419Z,2.70
2023-03-12T07:07:27.521Z,2.70
2023-03-12T07:09:55.589Z,2.80
2023-03-12T07:12:23.653Z,2.80
2023-03-12T07:14:51.734Z,2.50
2023-03-12T07:17:19.791Z,2.40
2023-03-12T07:19:49.805Z,2.60
2023-03-12T07:22:18.263Z,3.10
2023-03-12T07:24:46.361Z,2.70
2023-03-12T07:27:14.449Z,2.40
2023-03-12T07:29:42.451Z,2.50
2023-03-12T07:32:10.606Z,2.70
2023-03-12T07:34:38.720Z,2.60
2023-03-12T07:37:06.868Z,2.40
2023-03-12T07:39:35.088Z,2.50
2023-03-12T07:42:03.440Z,2.30
2023-03-12T07:44:31.739Z,2.30
2023-03-12T07:47:09.696Z,2.40
2023-03-12T07:49:44.982Z,2.50
2023-03-12T07:52:13.128Z,2.30
2023-03-12T07:54:41.412Z,2.50
2023-03-12T07:57:09.787Z,2.80
2023-03-12T07:59:38.043Z,2.40
2023-03-12T08:02:07.301Z,2.40
2023-03-12T08:04:35.626Z,2.30
2023-03-12T08:07:06.872Z,2.80
2023-03-12T08:09:36.620Z,2.40
2023-03-12T08:12:05.871Z,2.60
2023-03-12T08:14:34.641Z,2.50
2023-03-12T08:17:02.948Z,2.50
2023-03-12T08:19:31.216Z,2.60
2023-03-12T08:21:59.456Z,2.40
2023-03-12T08:24:27.491Z,2.30
2023-03-12T08:26:56.225Z,2.10
2023-03-12T08:29:24.328Z,2.50
2023-03-12T08:32:04.214Z,2.00
2023-03-12T08:34:34.396Z,2.30
2023-03-12T08:37:03.116Z,2.50
2023-03-12T08:39:31.511Z,2.20
2023-03-12T08:41:59.781Z,2.40
2023-03-12T08:44:27.902Z,2.40
2023-03-12T08:46:56.022Z,2.30
2023-03-12T08:49:25.029Z,2.60
2023-03-12T08:51:54.217Z,2.40
2023-03-12T08:54:22.431Z,2.60
2023-03-12T08:56:52.219Z,2.80
2023-03-12T08:59:22.475Z,2.50
2023-03-12T09:01:50.759Z,2.30
2023-03-12T09:04:18.962Z,2.40
2023-03-12T09:06:47.412Z,2.30
2023-03-12T09:09:15.749Z,2.40
2023-03-12T09:11:43.807Z,2.00
2023-03-12T09:17:00.110Z,2.40
2023-03-12T09:19:31.210Z,2.60
2023-03-12T09:21:59.456Z,2.30
2023-03-12T09:24:27.627Z,2.40
2023-03-12T09:26:55.676Z,2.50
2023-03-12T09:29:24.897Z,2.70
2023-03-12T09:31:53.102Z,2.30
2023-03-12T09:34:21.422Z,2.40
2023-03-12T09:36:50.080Z,2.40
2023-03-12T09:39:18.132Z,2.10
2023-03-12T09:41:50.474Z,2.20
2023-03-12T09:44:35.990Z,2.90
2023-03-12T09:47:10.010Z,2.10
2023-03-12T09:49:43.312Z,2.60
2023-03-12T09:52:36.151Z,2.30
2023-03-12T09:55:04.223Z,2.20
2023-03-12T09:57:32.458Z,2.40
2023-03-12T10:00:00.978Z,2.10
2023-03-12T10:03:10.612Z,2.20
2023-03-12T10:05:47.540Z,2.30
2023-03-12T10:08:31.359Z,2.30
2023-03-12T10:11:15.649Z,1.90
2023-03-12T10:14:00.326Z,2.20
2023-03-12T10:16:34.432Z,2.20
2023-03-12T10:19:22.552Z,2.10
2023-03-12T10:22:50.069Z,2.10
2023-03-12T10:25:48.557Z,2.40
2023-03-12T10:28:31.440Z,1.80
2023-03-12T10:31:05.412Z,1.90
2023-03-12T10:33:40.550Z,2.20
2023-03-12T10:36:17.591Z,2.20
2023-03-12T10:38:48.563Z,2.00
2023-03-12T10:41:26.078Z,2.00
2023-03-12T10:43:57.171Z,1.70
2023-03-12T10:46:37.410Z,2.10
2023-03-12T10:49:23.684Z,2.50
2023-03-12T10:52:17.464Z,1.80
2023-03-12T10:54:48.294Z,1.90
2023-03-12T10:59:47.792Z,2.10
2023-03-12T11:02:29.123Z,2.00
2023-03-12T11:04:58.271Z,1.90
2023-03-12T11:07:30.688Z,2.10
2023-03-12T11:10:08.005Z,1.80
2023-03-12T11:12:39.862Z,1.90
2023-03-12T11:15:22.159Z,1.80
2023-03-12T11:17:50.575Z,1.90
2023-03-12T11:20:26.431Z,1.90
2023-03-12T11:22:55.110Z,1.80
2023-03-12T11:25:29.171Z,1.70
2023-03-12T11:28:01.591Z,2.20
2023-03-12T11:30:36.839Z,2.20
2023-03-12T11:33:05.285Z,2.00
2023-03-12T11:35:36.102Z,1.90
2023-03-12T11:41:04.244Z,1.80
2023-03-12T11:43:48.542Z,1.50
2023-03-12T11:46:31.967Z,1.80
2023-03-12T11:49:17.969Z,1.60
2023-03-12T11:52:04.535Z,1.70
2023-03-12T11:54:44.381Z,1.50
2023-03-12T11:57:15.399Z,1.50
2023-03-12T12:02:41.652Z,1.80
2023-03-12T12:05:13.018Z,1.40
2023-03-12T12:07:49.963Z,1.50
2023-03-12T12:10:26.836Z,1.40
2023-03-12T12:13:22.511Z,1.70
2023-03-12T12:16:17.634Z,1.80
2023-03-12T12:19:05.803Z,1.60
2023-03-12T12:21:37.306Z,1.90
2023-03-12T12:24:23.691Z,1.80
2023-03-12T12:27:21.965Z,1.70
2023-03-12T12:29:56.153Z,1.80
2023-03-12T12:32:32.540Z,1.60
2023-03-12T12:35:20.127Z,1.80
2023-03-12T12:37:58.777Z,1.70
2023-03-12T12:40:31.682Z,1.30
2023-03-12T12:43:18.428Z,1.70
2023-03-12T12:45:49.978Z,1.60
2023-03-12T12:48:22.890Z,2.10
2023-03-12T12:50:52.995Z,1.60
2023-03-12T12:53:54.733Z,1.60
2023-03-12T12:56:31.271Z,1.60
2023-03-12T12:59:23.369Z,1.60
2023-03-12T13:01:53.653Z,1.70
2023-03-12T13:04:33.694Z,1.50
2023-03-12T13:07:12.631Z,1.40
2023-03-12T13:09:44.711Z,1.30
2023-03-12T13:12:32.889Z,1.50
2023-03-12T13:15:22.789Z,1.80
2023-03-12T13:18:00.092Z,1.80
2023-03-12T13:20:48.437Z,1.70
2023-03-12T13:23:38.013Z,1.70
2023-03-12T13:26:18.667Z,1.90
2023-03-12T13:34:09.232Z,1.80
2023-03-12T13:36:38.256Z,1.30
2023-03-12T13:39:06.451Z,1.50
2023-03-12T13:41:40.535Z,1.90
2023-03-12T13:44:27.726Z,1.80
2023-03-12T13:47:03.143Z,1.60
2023-03-12T13:50:00.690Z,1.70
2023-03-12T13:52:37.655Z,1.50
2023-03-12T13:55:14.807Z,1.50
2023-03-12T13:57:49.691Z,1.40
2023-03-12T14:00:25.558Z,1.50
2023-03-12T14:02:59.434Z,1.50
2023-03-12T14:05:29.218Z,1.60
2023-03-12T14:08:06.093Z,1.60
2023-03-12T14:10:59.725Z,1.60
2023-03-12T14:14:21.332Z,1.70
2023-03-12T14:16:52.405Z,1.70
2023-03-12T14:19:48.729Z,1.30
2023-03-12T14:22:22.798Z,1.70
2023-03-12T14:24:56.360Z,1.80
2023-03-12T14:27:29.252Z,1.70
2023-03-12T14:30:07.455Z,1.40
2023-03-12T14:32:36.333Z,1.70
2023-03-12T14:35:26.081Z,1.70
2023-03-12T14:40:33.660Z,1.90
2023-03-12T14:43:01.904Z,2.10
2023-03-12T14:45:30.241Z,1.80
2023-03-12T14:47:59.050Z,1.70
2023-03-12T14:50:38.423Z,1.60
2023-03-12T14:53:17.981Z,1.40
2023-03-12T14:55:46.066Z,1.70
2023-03-12T14:58:20.780Z,1.70
2023-03-12T15:01:00.224Z,1.60
2023-03-12T15:03:29.945Z,1.60
2023-03-12T15:05:58.336Z,1.70
2023-03-12T15:08:26.513Z,1.50
2023-03-12T15:10:58.080Z,1.90
2023-03-12T15:13:28.078Z,1.80
2023-03-12T15:15:56.672Z,1.70
2023-03-12T15:18:33.125Z,1.80
2023-03-12T15:21:03.128Z,1.90
2023-03-12T15:23:34.806Z,1.80
2023-03-12T15:26:21.072Z,1.70
2023-03-12T15:29:15.378Z,1.60
2023-03-12T15:31:48.891Z,1.80
2023-03-12T15:34:35.976Z,1.70
2023-03-12T15:37:49.521Z,2.00
2023-03-12T15:40:24.024Z,1.70
2023-03-12T15:42:57.503Z,1.70
2023-03-12T15:45:48.501Z,1.30
2023-03-12T15:48:41.561Z,1.70
2023-03-12T15:51:29.820Z,1.60
2023-03-12T15:54:28.572Z,2.00
2023-03-12T15:57:32.311Z,1.70
2023-03-12T16:00:10.138Z,1.70
2023-03-12T16:02:46.797Z,1.60
2023-03-12T16:05:15.145Z,1.80
2023-03-12T16:07:43.585Z,1.70
2023-03-12T16:10:15.335Z,1.50
2023-03-12T16:12:44.567Z,1.70
2023-03-12T16:15:26.227Z,1.70
2023-03-12T16:17:54.574Z,1.60
2023-03-12T16:20:22.638Z,1.70
2023-03-12T16:22:50.992Z,1.70
2023-03-12T16:25:19.113Z,1.80
2023-03-12T16:27:56.368Z,1.80
2023-03-12T16:30:31.146Z,2.10
2023-03-12T16:33:01.948Z,2.10
2023-03-12T16:38:01.257Z,2.10
2023-03-12T16:40:34.216Z,2.10
2023-03-12T16:43:06.032Z,2.20
2023-03-12T16:45:36.567Z,2.00
2023-03-12T16:48:06.849Z,2.20
2023-03-12T16:50:34.932Z,2.00
2023-03-12T16:53:04.165Z,2.00
2023-03-12T16:55:45.668Z,2.80
2023-03-12T16:58:15.841Z,2.80
2023-03-12T17:00:44.866Z,2.50
2023-03-12T17:03:30.596Z,2.60
2023-03-12T17:05:59.264Z,2.30
2023-03-12T17:08:27.729Z,2.80
2023-03-12T17:10:57.432Z,2.30
2023-03-12T17:13:29.681Z,2.90
2023-03-12T17:15:57.850Z,2.80
2023-03-12T17:18:26.032Z,3.50
2023-03-12T17:20:54.199Z,2.90
2023-03-12T17:23:22.805Z,3.60
2023-03-12T17:25:50.905Z,3.20
2023-03-12T17:28:18.990Z,3.00
2023-03-12T17:30:47.678Z,2.20
2023-03-12T17:33:17.801Z,2.50
2023-03-12T17:35:46.120Z,2.30
2023-03-12T17:38:14.392Z,2.70
2023-03-12T17:40:44.122Z,2.70
2023-03-12T17:43:12.722Z,2.60
2023-03-12T17:45:42.196Z,2.80
2023-03-12T17:48:10.532Z,3.10
2023-03-12T17:50:39.118Z,3.00
2023-03-12T17:53:07.368Z,2.80
2023-03-12T17:55:36.686Z,2.60
2023-03-12T17:58:06.269Z,2.80
2023-03-12T18:00:34.768Z,2.70
2023-03-12T18:03:03.737Z,2.50
2023-03-12T18:05:32.009Z,2.40
2023-03-12T18:08:00.108Z,2.90
2023-03-12T18:10:28.558Z,2.70
2023-03-12T18:12:56.746Z,2.70
2023-03-12T18:15:24.925Z,2.40
2023-03-12T18:17:56.581Z,2.40
2023-03-12T18:20:37.494Z,2.50
2023-03-12T18:23:07.119Z,2.90
2023-03-12T18:25:36.976Z,2.70
2023-03-12T18:28:05.355Z,3.10
2023-03-12T18:30:34.115Z,3.20
2023-03-12T18:33:02.296Z,3.60
2023-03-12T18:35:30.670Z,4.00
2023-03-12T18:37:59.770Z,3.40
2023-03-12T18:40:29.709Z,3.70
2023-03-12T18:42:58.945Z,3.90
2023-03-12T18:45:28.171Z,4.10
2023-03-12T18:47:56.788Z,3.90
2023-03-12T18:50:25.041Z,3.90
2023-03-12T18:52:53.195Z,3.70
2023-03-12T18:55:21.468Z,3.40
2023-03-12T18:57:49.647Z,3.80
2023-03-12T19:00:18.678Z,4.00
2023-03-12T19:02:48.496Z,4.10
2023-03-12T19:05:17.156Z,4.60
2023-03-12T19:07:45.441Z,4.40
2023-03-12T19:10:14.049Z,3.90
2023-03-12T19:12:52.049Z,4.10
2023-03-12T19:15:24.127Z,4.40
2023-03-12T19:17:53.101Z,4.40
2023-03-12T19:20:21.781Z,4.30
2023-03-12T19:22:50.176Z,4.60
2023-03-12T19:25:18.484Z,4.50
2023-03-12T19:27:46.802Z,4.50
2023-03-12T19:30:15.684Z,4.60
2023-03-12T19:32:44.770Z,5.10
2023-03-12T19:35:14.743Z,4.50
2023-03-12T19:37:43.257Z,4.70
2023-03-12T19:40:13.450Z,4.90
2023-03-12T19:42:41.914Z,4.50
2023-03-12T19:45:11.264Z,4.80
2023-03-12T19:47:39.548Z,5.00
2023-03-12T19:50:09.238Z,4.90
2023-03-12T19:52:37.944Z,5.90
2023-03-12T19:55:06.314Z,5.00
2023-03-12T19:57:34.466Z,5.90
2023-03-12T20:00:02.776Z,4.80
2023-03-12T20:02:30.973Z,4.70
2023-03-12T20:04:59.326Z,4.20
2023-03-12T20:07:27.570Z,4.40
2023-03-12T20:09:55.741Z,4.10
2023-03-12T20:12:23.953Z,3.70
2023-03-12T20:14:52.088Z,4.10
2023-03-12T20:17:20.259Z,4.70
2023-03-12T20:19:48.383Z,4.40
2023-03-12T20:22:16.640Z,5.10
2023-03-12T20:24:44.807Z,4.00
2023-03-12T20:27:12.950Z,4.30
2023-03-12T20:29:43.588Z,4.00
2023-03-12T20:32:12.589Z,4.20
2023-03-12T20:34:40.678Z,4.90
2023-03-12T20:37:08.944Z,4.10
2023-03-12T20:39:37.208Z,4.50
2023-03-12T20:42:05.601Z,4.60
2023-03-12T20:44:33.906Z,4.30
2023-03-12T20:47:02.204Z,5.10
2023-03-12T20:49:30.336Z,5.40
2023-03-12T20:51:58.599Z,4.60
2023-03-12T20:54:27.666Z,4.80
2023-03-12T20:56:55.899Z,5.00
2023-03-12T20:59:24.113Z,5.40
2023-03-12T21:01:52.316Z,4.50
2023-03-12T21:04:20.649Z,6.40
2023-03-12T21:06:51.850Z,4.70
2023-03-12T21:09:22.498Z,4.40
2023-03-12T21:11:51.339Z,4.40
2023-03-12T21:14:19.426Z,4.30
2023-03-12T21:16:47.891Z,5.00
2023-03-12T21:19:16.026Z,4.60
2023-03-12T21:21:44.240Z,5.00
2023-03-12T21:24:12.356Z,5.10
2023-03-12T21:26:40.502Z,5.20
2023-03-12T21:29:09.033Z,5.30
2023-03-12T21:31:37.178Z,5.40
2023-03-12T21:34:06.596Z,5.60
2023-03-12T21:36:35.603Z,4.70
2023-03-12T21:39:03.914Z,4.00
2023-03-12T21:41:32.274Z,5.10
2023-03-12T21:44:02.582Z,5.40
2023-03-12T21:46:30.815Z,5.80
2023-03-12T21:48:59.175Z,5.30
2023-03-12T21:51:27.446Z,5.40
2023-03-12T21:53:57.112Z,5.40
2023-03-12T21:56:28.316Z,5.50
2023-03-12T21:58:57.473Z,5.80
2023-03-12T22:01:25.685Z,6.10
2023-03-12T22:03:53.933Z,5.60
2023-03-12T22:06:22.201Z,6.00
2023-03-12T22:08:50.403Z,5.50
2023-03-12T22:11:19.118Z,6.40
2023-03-12T22:13:47.800Z,6.60
2023-03-12T22:16:16.368Z,6.40
2023-03-12T22:18:46.158Z,6.60
2023-03-12T22:21:20.148Z,6.50
2023-03-12T22:23:51.892Z,6.00
2023-03-12T22:26:21.707Z,5.90
2023-03-12T22:28:51.791Z,6.10
2023-03-12T22:31:21.463Z,6.40
2023-03-12T22:33:49.834Z,5.90
2023-03-12T22:36:19.170Z,5.80
2023-03-12T22:38:50.563Z,5.60
2023-03-12T22:41:20.083Z,5.40
2023-03-12T22:43:49.456Z,5.70
2023-03-12T22:46:19.200Z,5.60
2023-03-12T22:48:52.148Z,4.50
2023-03-12T22:51:20.362Z,4.10
2023-03-12T22:53:48.482Z,5.10
2023-03-12T22:56:16.579Z,5.50
2023-03-12T22:58:45.007Z,6.50
2023-03-12T23:01:16.184Z,6.30
2023-03-12T23:03:46.198Z,6.10
2023-03-12T23:06:23.050Z,5.70
2023-03-12T23:08:51.693Z,5.90
2023-03-12T23:11:20.969Z,4.80
2023-03-12T23:13:49.920Z,4.80
2023-03-12T23:16:23.591Z,4.30
2023-03-12T23:18:51.799Z,5.70
2023-03-12T23:21:24.378Z,6.70
2023-03-12T23:23:53.127Z,6.00
2023-03-12T23:26:24.280Z,6.10
2023-03-12T23:28:55.383Z,6.10
2023-03-12T23:31:24.804Z,2.10
2023-03-12T23:33:53.317Z,3.60
2023-03-12T23:36:23.384Z,10.00
2023-03-12T23:38:51.870Z,4.00
2023-03-12T23:41:22.857Z,8.00
2023-03-12T23:43:51.604Z,7.30
2023-03-12T23:46:20.727Z,7.40
2023-03-12T23:48:50.036Z,7.00
2023-03-12T23:51:23.519Z,3.80
2023-03-12T23:53:55.067Z,8.10
2023-03-12T23:56:27.149Z,7.10
2023-03-12T23:58:55.328Z,6.10
